Time;durP1;ratioP1;P1;durP2;ratioP2;P2;SDS_P1;SDS_P2;PMS_P1;PMS_P2;Temp;Humidity;BMP_temperature;BMP_pressure;BME280_temperature;BME280_humidity;BME280_pressure;Samples;Min_cycle;Max_cycle;Signal;HPM_P1;HPM_P2
2023/04/12 00:00:32;;;;;;;3.20;2.20;;;10.70;99.90;;;;;;5011144;28;20785;-75
2023/04/12 00:03:01;;;;;;;5.50;2.23;;;10.70;99.90;;;;;;5021659;28;20548;-74
2023/04/12 00:05:30;;;;;;;7.90;2.10;;;10.70;99.90;;;;;;5010412;28;20517;-75
2023/04/12 00:07:59;;;;;;;3.60;1.93;;;10.60;99.90;;;;;;5011759;28;20972;-75
2023/04/12 00:10:25;;;;;;;3.60;2.17;;;10.60;99.90;;;;;;5009908;28;20426;-75
2023/04/12 00:12:51;;;;;;;4.90;2.00;;;10.60;99.90;;;;;;5009053;28;20414;-75
2023/04/12 00:15:17;;;;;;;3.13;1.70;;;10.60;99.90;;;;;;5008786;28;20460;-75
2023/04/12 00:17:43;;;;;;;5.40;2.17;;;10.70;99.90;;;;;;5009963;28;20809;-75
2023/04/12 00:20:12;;;;;;;11.77;2.37;;;10.70;99.90;;;;;;5008741;28;20289;-75
2023/04/12 00:22:40;;;;;;;4.90;2.07;;;10.70;99.90;;;;;;5010440;28;20445;-75
2023/04/12 00:25:06;;;;;;;3.40;2.00;;;10.70;99.90;;;;;;5010092;28;20414;-75
2023/04/12 00:27:31;;;;;;;3.40;2.00;;;10.70;99.90;;;;;;5008785;28;20437;-75
2023/04/12 00:29:57;;;;;;;3.50;1.80;;;10.70;99.90;;;;;;5009857;28;20438;-74
2023/04/12 00:32:23;;;;;;;2.73;1.53;;;10.70;99.90;;;;;;5009104;28;20302;-76
2023/04/12 00:34:48;;;;;;;5.60;2.17;;;10.60;99.90;;;;;;5009746;28;20898;-75
2023/04/12 00:37:14;;;;;;;4.00;1.70;;;10.70;99.90;;;;;;5008864;28;20206;-75
2023/04/12 00:39:40;;;;;;;6.57;2.10;;;10.70;99.90;;;;;;5009669;28;20219;-75
2023/04/12 00:42:05;;;;;;;4.93;1.80;;;10.70;99.90;;;;;;5009850;28;20184;-75
2023/04/12 00:44:32;;;;;;;4.77;2.20;;;10.70;99.90;;;;;;5009635;28;20183;-76
2023/04/12 00:47:04;;;;;;;2.57;1.60;;;10.70;99.90;;;;;;5009873;28;20175;-75
2023/04/12 00:49:30;;;;;;;4.07;1.60;;;10.70;99.90;;;;;;5009712;28;20441;-75
2023/04/12 00:52:03;;;;;;;5.80;1.60;;;10.80;99.90;;;;;;5008878;28;20422;-75
2023/04/12 00:54:35;;;;;;;5.90;1.60;;;10.70;99.90;;;;;;5008518;28;20927;-75
2023/04/12 00:57:02;;;;;;;3.70;1.53;;;10.80;99.90;;;;;;5009865;28;20974;-75
2023/04/12 00:59:28;;;;;;;5.23;1.27;;;10.80;99.90;;;;;;5009790;28;20464;-75
2023/04/12 01:01:55;;;;;;;4.83;1.50;;;10.80;99.90;;;;;;5009828;28;20409;-75
2023/04/12 01:04:21;;;;;;;2.60;1.53;;;10.80;99.90;;;;;;5008044;28;20907;-75
2023/04/12 01:06:49;;;;;;;7.50;1.93;;;10.80;99.90;;;;;;5009252;28;20480;-75
2023/04/12 01:09:15;;;;;;;2.73;1.50;;;10.80;99.90;;;;;;5008248;28;20418;-74
2023/04/12 01:11:57;;;;;;;3.40;1.90;;;10.80;99.90;;;;;;5009478;28;20796;-75
2023/04/12 01:14:29;;;;;;;4.70;1.50;;;10.70;99.90;;;;;;5009230;28;20262;-75
2023/04/12 01:16:58;;;;;;;7.50;1.70;;;10.80;99.90;;;;;;5007981;28;20473;-75
2023/04/12 01:19:44;;;;;;;3.70;1.73;;;10.80;99.90;;;;;;5010444;28;20911;-75
2023/04/12 01:22:10;;;;;;;4.60;1.60;;;10.70;99.90;;;;;;5016060;28;20488;-74
2023/04/12 01:25:01;;;;;;;3.53;1.67;;;10.80;99.90;;;;;;5015792;28;20498;-75
2023/04/12 01:27:37;;;;;;;2.47;1.50;;;10.80;99.90;;;;;;5005476;28;20472;-75
2023/04/12 01:30:06;;;;;;;2.27;1.30;;;10.70;99.90;;;;;;5015856;28;20452;-76
2023/04/12 01:32:33;;;;;;;2.77;1.47;;;10.70;99.90;;;;;;5016155;28;20413;-75
2023/04/12 01:35:01;;;;;;;2.87;1.33;;;10.70;99.90;;;;;;4997714;28;20411;-75
2023/04/12 01:37:28;;;;;;;3.20;1.47;;;10.70;99.90;;;;;;5015823;28;20874;-75
2023/04/12 01:39:54;;;;;;;3.60;1.43;;;10.70;99.90;;;;;;5014390;28;21024;-75
2023/04/12 01:42:20;;;;;;;3.43;1.30;;;10.60;99.90;;;;;;5016280;28;20425;-75
2023/04/12 01:44:46;;;;;;;5.90;1.77;;;10.50;99.90;;;;;;5014816;28;20187;-75
2023/04/12 01:47:12;;;;;;;2.70;1.40;;;10.50;99.90;;;;;;5014723;28;20838;-75
2023/04/12 01:49:54;;;;;;;2.53;1.60;;;10.40;99.90;;;;;;5014752;28;20445;-75
2023/04/12 01:52:21;;;;;;;5.03;2.00;;;10.40;99.90;;;;;;5016046;28;20476;-75
2023/04/12 01:54:50;;;;;;;4.13;1.60;;;10.40;99.90;;;;;;5014594;28;20425;-75
2023/04/12 01:57:17;;;;;;;5.70;1.83;;;10.40;99.90;;;;;;5015561;28;20459;-75
2023/04/12 01:59:44;;;;;;;3.50;1.43;;;10.40;99.90;;;;;;5015754;28;20437;-75
2023/04/12 02:02:11;;;;;;;3.90;1.70;;;10.40;99.90;;;;;;5014689;28;20421;-75
2023/04/12 02:04:38;;;;;;;5.80;1.67;;;10.30;99.90;;;;;;5015736;28;20446;-76
2023/04/12 02:07:04;;;;;;;4.53;2.27;;;10.30;99.90;;;;;;4998090;28;20427;-76
2023/04/12 02:09:34;;;;;;;6.67;1.67;;;10.20;99.90;;;;;;5015322;28;20513;-76
2023/04/12 02:12:00;;;;;;;3.43;1.83;;;10.20;99.90;;;;;;5015455;28;20179;-76
2023/04/12 02:14:26;;;;;;;2.90;1.87;;;10.20;99.90;;;;;;5015064;28;20509;-76
2023/04/12 02:16:54;;;;;;;3.63;2.03;;;10.10;99.90;;;;;;5014908;28;20453;-76
2023/04/12 02:19:20;;;;;;;4.00;1.80;;;10.10;99.90;;;;;;5015158;28;20187;-75
2023/04/12 02:21:45;;;;;;;4.43;2.00;;;10.00;99.90;;;;;;5015224;28;20409;-77
2023/04/12 02:24:12;;;;;;;6.23;2.00;;;10.00;99.90;;;;;;5034187;28;20174;-77
2023/04/12 02:26:38;;;;;;;2.87;1.63;;;10.00;99.90;;;;;;5014698;28;20191;-76
2023/04/12 02:29:08;;;;;;;5.13;1.73;;;10.00;99.90;;;;;;5015173;28;20418;-77
2023/04/12 02:31:35;;;;;;;4.03;1.60;;;10.00;99.90;;;;;;5011529;28;20806;-77
2023/04/12 02:34:01;;;;;;;3.00;1.17;;;9.90;99.90;;;;;;5027620;28;20418;-76
2023/04/12 02:36:28;;;;;;;8.17;1.80;;;9.90;99.90;;;;;;5012666;28;20480;-77
2023/04/12 02:38:55;;;;;;;8.43;2.00;;;9.90;99.90;;;;;;5012611;28;20607;-77
2023/04/12 02:41:21;;;;;;;4.20;1.60;;;9.90;99.90;;;;;;5012756;28;20442;-77
2023/04/12 02:43:47;;;;;;;3.87;1.60;;;9.90;99.90;;;;;;5011246;28;20418;-77
2023/04/12 02:46:23;;;;;;;6.27;2.10;;;9.90;99.90;;;;;;5012366;28;20457;-77
2023/04/12 02:48:49;;;;;;;5.73;2.27;;;10.00;99.90;;;;;;4998871;28;20271;-77
2023/04/12 02:51:15;;;;;;;3.57;2.40;;;10.00;99.90;;;;;;4992381;28;20458;-77
2023/04/12 02:53:41;;;;;;;2.23;1.67;;;9.90;99.90;;;;;;5007597;28;20505;-77
2023/04/12 02:56:08;;;;;;;4.10;1.47;;;9.90;99.90;;;;;;4991889;28;20562;-77
2023/04/12 02:58:35;;;;;;;1.83;1.37;;;9.90;99.90;;;;;;4993272;28;20497;-77
2023/04/12 03:01:00;;;;;;;5.50;2.60;;;9.90;99.90;;;;;;5006935;28;20427;-77
2023/04/12 03:03:30;;;;;;;2.70;1.60;;;9.80;99.90;;;;;;4991764;28;20900;-77
2023/04/12 03:05:57;;;;;;;2.90;1.50;;;9.80;99.90;;;;;;4992034;28;20847;-77
2023/04/12 03:08:23;;;;;;;3.50;2.20;;;9.70;99.90;;;;;;4993698;28;20415;-77
2023/04/12 03:10:48;;;;;;;7.03;3.43;;;9.70;99.90;;;;;;4997910;28;20469;-77
2023/04/12 03:13:14;;;;;;;4.67;1.50;;;9.70;99.90;;;;;;4995435;28;20180;-77
2023/04/12 03:15:42;;;;;;;3.13;1.73;;;9.60;99.90;;;;;;4992692;28;20212;-77
2023/04/12 03:18:08;;;;;;;8.80;1.77;;;9.60;99.90;;;;;;5007160;28;20679;-77
2023/04/12 03:20:34;;;;;;;4.03;1.77;;;9.60;99.90;;;;;;4992641;28;20469;-77
2023/04/12 03:23:00;;;;;;;2.93;1.80;;;9.50;99.90;;;;;;4991574;28;20458;-77
2023/04/12 03:25:26;;;;;;;4.13;1.60;;;9.50;99.90;;;;;;4991707;28;20943;-77
2023/04/12 03:27:51;;;;;;;3.53;1.73;;;9.50;99.90;;;;;;4991243;28;20187;-76
2023/04/12 03:30:17;;;;;;;6.70;2.03;;;9.50;99.90;;;;;;4990084;28;20204;-77
2023/04/12 03:32:43;;;;;;;2.50;1.60;;;9.50;99.90;;;;;;5006372;28;20813;-77
2023/04/12 03:35:10;;;;;;;3.07;1.53;;;9.50;99.90;;;;;;4990168;28;20850;-77
2023/04/12 03:37:36;;;;;;;3.43;2.33;;;9.40;99.90;;;;;;4991438;28;20447;-77
2023/04/12 03:40:02;;;;;;;4.20;1.63;;;9.50;99.90;;;;;;4990029;28;20571;-77
2023/04/12 03:42:28;;;;;;;2.03;1.40;;;9.40;99.90;;;;;;4991381;28;20411;-77
2023/04/12 03:44:54;;;;;;;2.53;1.40;;;9.40;99.90;;;;;;5001411;28;20426;-77
2023/04/12 03:47:20;;;;;;;4.40;2.00;;;9.40;99.90;;;;;;5008170;28;20414;-77
2023/04/12 03:49:48;;;;;;;4.57;1.40;;;9.30;99.90;;;;;;4991454;28;20203;-77
2023/04/12 03:52:14;;;;;;;2.70;2.17;;;9.40;99.90;;;;;;4991095;28;20433;-77
2023/04/12 03:54:40;;;;;;;1.87;1.40;;;9.40;99.90;;;;;;4990841;28;21106;-77
2023/04/12 03:57:06;;;;;;;3.43;1.50;;;9.30;99.90;;;;;;4989335;28;20203;-77
2023/04/12 03:59:31;;;;;;;3.10;1.70;;;9.40;99.90;;;;;;4990742;28;20279;-77
2023/04/12 04:02:01;;;;;;;2.50;1.57;;;9.40;99.90;;;;;;4990989;28;20250;-77
2023/04/12 04:04:27;;;;;;;3.37;1.40;;;9.40;99.90;;;;;;4990439;28;20187;-77
2023/04/12 04:06:53;;;;;;;3.30;1.60;;;9.40;99.90;;;;;;5005397;28;20419;-77
2023/04/12 04:09:19;;;;;;;2.20;1.43;;;9.30;99.90;;;;;;4992098;28;21240;-77
2023/04/12 04:11:49;;;;;;;8.77;1.73;;;9.20;99.90;;;;;;4992774;28;20522;-77
2023/04/12 04:14:15;;;;;;;2.13;1.60;;;9.30;99.90;;;;;;4990339;28;20806;-77
2023/04/12 04:16:40;;;;;;;1.50;1.10;;;9.20;99.90;;;;;;4994333;28;20561;-77
2023/04/12 04:19:06;;;;;;;7.33;1.87;;;9.20;99.90;;;;;;4992716;28;20183;-78
2023/04/12 04:21:32;;;;;;;3.80;1.30;;;9.20;99.90;;;;;;4992263;28;20200;-77
2023/04/12 04:24:01;;;;;;;2.77;1.80;;;9.20;99.90;;;;;;4990081;28;20179;-76
2023/04/12 04:26:32;;;;;;;2.70;1.60;;;9.20;99.90;;;;;;4990422;28;20187;-77
2023/04/12 04:29:00;;;;;;;3.70;1.90;;;9.30;99.90;;;;;;4988597;28;20420;-76
2023/04/12 04:31:35;;;;;;;2.80;1.70;;;9.20;99.90;;;;;;4989868;28;20442;-77
2023/04/12 04:34:05;;;;;;;4.77;2.03;;;9.20;99.90;;;;;;4990131;28;20453;-77
2023/04/12 04:36:33;;;;;;;1.93;1.60;;;9.20;99.90;;;;;;4988911;28;20519;-76
2023/04/12 04:39:00;;;;;;;2.10;1.80;;;9.20;99.90;;;;;;4989857;28;20438;-77
2023/04/12 04:41:25;;;;;;;2.90;1.50;;;9.30;99.90;;;;;;4988779;28;20493;-77
2023/04/12 04:43:52;;;;;;;3.30;2.33;;;9.40;99.90;;;;;;5013821;28;20421;-77
2023/04/12 04:46:22;;;;;;;2.50;1.90;;;9.30;99.90;;;;;;5007017;28;20413;-77
2023/04/12 04:48:50;;;;;;;2.23;1.77;;;9.30;99.90;;;;;;5020939;28;20478;-76
2023/04/12 04:51:16;;;;;;;3.90;2.00;;;8.90;99.90;;;;;;5026599;28;20801;-77
2023/04/12 04:53:42;;;;;;;3.30;1.77;;;9.30;99.90;;;;;;5009116;28;20406;-77
2023/04/12 04:56:09;;;;;;;1.83;1.53;;;9.30;99.90;;;;;;5012437;28;20463;-76
2023/04/12 04:58:35;;;;;;;1.50;1.40;;;9.30;99.90;;;;;;5012403;28;20183;-77
2023/04/12 05:01:00;;;;;;;1.77;1.60;;;9.40;99.90;;;;;;5020093;28;20487;-77
2023/04/12 05:03:29;;;;;;;3.47;1.60;;;9.30;99.90;;;;;;5021178;28;20174;-77
2023/04/12 05:05:55;;;;;;;2.60;2.40;;;9.30;99.90;;;;;;5028191;28;20273;-77
2023/04/12 05:08:22;;;;;;;3.27;1.97;;;9.20;99.90;;;;;;5028411;28;20500;-77
2023/04/12 05:10:51;;;;;;;3.83;1.63;;;9.30;99.90;;;;;;5028632;28;20433;-77
2023/04/12 05:13:18;;;;;;;2.00;1.30;;;9.30;99.90;;;;;;5028209;28;21273;-77
2023/04/12 05:15:43;;;;;;;3.80;2.00;;;9.40;99.90;;;;;;5030127;28;20457;-77
2023/04/12 05:18:09;;;;;;;1.90;1.37;;;9.30;99.90;;;;;;5028610;28;20456;-77
2023/04/12 05:20:37;;;;;;;2.13;1.83;;;9.30;99.90;;;;;;5030257;28;20564;-77
2023/04/12 05:23:03;;;;;;;1.57;1.43;;;9.30;99.90;;;;;;5029027;28;20269;-77
2023/04/12 05:25:29;;;;;;;6.43;2.03;;;9.30;99.90;;;;;;5029099;28;20496;-77
2023/04/12 05:27:55;;;;;;;1.77;1.53;;;9.30;99.90;;;;;;5028717;28;20193;-77
2023/04/12 05:30:21;;;;;;;2.87;1.90;;;9.30;99.90;;;;;;5030404;28;20448;-77
2023/04/12 05:32:46;;;;;;;2.50;1.80;;;9.20;99.90;;;;;;5024101;28;20218;-77
2023/04/12 05:35:12;;;;;;;2.73;1.97;;;9.20;99.90;;;;;;5014983;28;20214;-77
2023/04/12 05:37:37;;;;;;;2.20;1.60;;;9.20;99.90;;;;;;5022228;28;20232;-77
2023/04/12 05:40:06;;;;;;;2.30;1.40;;;9.20;99.90;;;;;;5010979;28;20218;-77
2023/04/12 05:42:33;;;;;;;3.93;1.50;;;9.30;99.90;;;;;;5006197;28;20270;-77
2023/04/12 05:45:00;;;;;;;1.70;1.53;;;9.20;99.90;;;;;;5002303;28;20828;-77
2023/04/12 05:47:25;;;;;;;2.93;1.70;;;9.10;99.90;;;;;;5008423;28;20462;-77
2023/04/12 05:49:52;;;;;;;1.70;1.47;;;9.20;99.90;;;;;;5037441;28;21020;-77
2023/04/12 05:52:18;;;;;;;1.87;1.50;;;9.20;99.90;;;;;;5004695;28;20206;-77
2023/04/12 05:54:44;;;;;;;2.73;1.80;;;9.20;99.90;;;;;;5029650;28;20461;-78
2023/04/12 05:57:11;;;;;;;2.93;1.57;;;9.20;99.90;;;;;;5030765;28;20214;-78
2023/04/12 05:59:36;;;;;;;1.87;1.30;;;9.20;99.90;;;;;;5024100;28;20203;-77
2023/04/12 06:02:02;;;;;;;1.97;1.53;;;9.20;99.90;;;;;;5017378;28;20858;-77
2023/04/12 06:04:28;;;;;;;1.83;1.73;;;9.20;99.90;;;;;;5021695;28;20179;-77
2023/04/12 06:06:55;;;;;;;4.40;1.40;;;9.20;99.90;;;;;;5012872;28;20520;-77
2023/04/12 06:09:21;;;;;;;3.20;1.90;;;9.20;99.90;;;;;;4997838;28;20238;-77
2023/04/12 06:11:46;;;;;;;2.60;1.60;;;9.20;99.90;;;;;;5011216;28;20442;-77
2023/04/12 06:14:12;;;;;;;3.30;1.70;;;9.10;99.90;;;;;;4993847;28;20418;-77
2023/04/12 06:16:38;;;;;;;2.00;1.57;;;9.10;99.90;;;;;;5009296;28;20249;-77
2023/04/12 06:19:04;;;;;;;2.50;1.23;;;9.10;99.90;;;;;;5013931;28;20233;-78
2023/04/12 06:21:30;;;;;;;1.80;1.40;;;9.20;99.90;;;;;;5018766;28;20237;-77
2023/04/12 06:23:55;;;;;;;1.53;1.43;;;9.10;99.90;;;;;;5012709;28;20821;-77
2023/04/12 06:26:21;;;;;;;2.13;1.30;;;9.10;99.90;;;;;;5019819;28;20512;-77
2023/04/12 06:28:47;;;;;;;1.73;1.40;;;9.10;99.90;;;;;;5025636;28;20547;-78
2023/04/12 06:31:14;;;;;;;2.30;1.30;;;9.00;99.90;;;;;;5020971;28;20259;-77
2023/04/12 06:33:40;;;;;;;1.27;1.17;;;9.10;99.90;;;;;;5027201;28;20410;-76
2023/04/12 06:36:06;;;;;;;2.17;1.43;;;9.00;99.90;;;;;;5026944;28;20570;-77
2023/04/12 06:38:32;;;;;;;1.47;1.27;;;9.10;99.90;;;;;;5023533;28;20441;-77
2023/04/12 06:40:58;;;;;;;1.70;0.90;;;9.10;99.90;;;;;;5021140;28;20444;-77
2023/04/12 06:43:24;;;;;;;2.60;1.47;;;9.10;99.90;;;;;;5026085;28;20421;-78
2023/04/12 06:45:50;;;;;;;1.43;1.00;;;9.10;99.90;;;;;;5016160;28;20456;-77
2023/04/12 06:48:15;;;;;;;2.77;0.90;;;9.10;99.90;;;;;;5013142;28;20195;-76
2023/04/12 06:50:41;;;;;;;1.77;1.30;;;9.10;99.90;;;;;;5013449;28;20210;-77
2023/04/12 06:53:07;;;;;;;1.10;0.90;;;9.10;99.90;;;;;;5014281;28;20599;-77
2023/04/12 06:55:32;;;;;;;1.30;1.03;;;9.10;99.90;;;;;;5014969;28;20249;-78
2023/04/12 06:57:58;;;;;;;1.20;1.10;;;9.10;99.90;;;;;;5013225;28;20183;-77
2023/04/12 07:00:24;;;;;;;2.13;1.20;;;9.20;99.90;;;;;;5012982;28;20231;-77
2023/04/12 07:02:49;;;;;;;2.93;1.40;;;9.20;99.90;;;;;;5014948;28;20198;-78
2023/04/12 07:05:16;;;;;;;1.17;0.90;;;9.20;99.90;;;;;;5013344;28;20508;-77
2023/04/12 07:07:41;;;;;;;2.30;0.97;;;9.20;99.90;;;;;;5013613;28;20536;-76
2023/04/12 07:10:07;;;;;;;1.50;1.37;;;9.20;99.90;;;;;;5014221;28;20442;-77
2023/04/12 07:12:33;;;;;;;0.87;0.70;;;9.30;99.90;;;;;;5016749;28;20251;-77
2023/04/12 07:14:58;;;;;;;1.20;0.90;;;9.20;99.90;;;;;;5014303;28;20516;-77
2023/04/12 07:17:25;;;;;;;1.07;0.97;;;9.10;99.90;;;;;;5012904;28;20207;-77
2023/04/12 07:19:55;;;;;;;1.00;0.90;;;9.40;99.90;;;;;;5013406;28;20226;-77
2023/04/12 07:22:21;;;;;;;0.97;0.87;;;9.30;99.90;;;;;;5014120;28;21012;-77
2023/04/12 07:24:48;;;;;;;1.10;0.90;;;9.30;99.90;;;;;;5012958;28;20418;-77
2023/04/12 07:27:14;;;;;;;1.30;0.90;;;9.30;99.90;;;;;;5028674;28;20414;-77
2023/04/12 07:29:40;;;;;;;0.90;0.80;;;9.30;99.90;;;;;;5029318;28;20795;-77
2023/04/12 07:32:08;;;;;;;0.87;0.80;;;9.30;99.90;;;;;;5015194;28;20590;-77
2023/04/12 07:34:35;;;;;;;1.53;0.90;;;9.30;99.90;;;;;;5029967;28;20476;-78
2023/04/12 07:37:01;;;;;;;1.07;0.90;;;9.30;99.90;;;;;;5012077;28;20465;-77
2023/04/12 07:39:28;;;;;;;2.40;1.00;;;9.40;99.90;;;;;;5013974;28;21181;-77
2023/04/12 07:41:54;;;;;;;2.43;0.80;;;9.40;99.90;;;;;;5014736;28;20460;-77
2023/04/12 07:44:20;;;;;;;2.00;0.90;;;9.40;99.90;;;;;;5014299;28;20454;-77
2023/04/12 07:46:46;;;;;;;1.33;0.87;;;9.50;99.90;;;;;;5012741;28;20450;-77
2023/04/12 07:49:12;;;;;;;1.27;0.80;;;9.60;99.90;;;;;;5012601;28;20433;-77
2023/04/12 07:51:37;;;;;;;1.20;0.70;;;9.60;99.90;;;;;;5013168;28;20587;-77
2023/04/12 07:54:03;;;;;;;1.07;0.80;;;9.60;99.90;;;;;;5010710;28;20887;-77
2023/04/12 07:56:33;;;;;;;0.67;0.67;;;9.60;99.90;;;;;;5015907;28;20294;-77
2023/04/12 07:58:59;;;;;;;1.00;0.77;;;9.60;99.90;;;;;;5017251;28;20418;-77
2023/04/12 08:01:24;;;;;;;1.77;1.20;;;9.60;99.90;;;;;;5014833;28;20915;-77
2023/04/12 08:03:50;;;;;;;1.00;0.87;;;9.70;99.90;;;;;;5017132;28;20207;-78
2023/04/12 08:06:16;;;;;;;1.00;0.90;;;9.70;99.90;;;;;;5015547;28;20183;-79
2023/04/12 08:08:41;;;;;;;0.90;0.70;;;9.80;99.90;;;;;;5011919;28;20547;-78
2023/04/12 08:11:07;;;;;;;1.70;0.70;;;9.80;99.90;;;;;;5010344;28;20203;-78
2023/04/12 08:13:34;;;;;;;2.07;0.90;;;9.80;99.90;;;;;;5010495;28;20175;-79
2023/04/12 08:16:00;;;;;;;0.97;0.87;;;9.80;99.90;;;;;;5010714;28;20257;-78
2023/04/12 08:18:27;;;;;;;0.90;0.70;;;9.90;99.90;;;;;;5011566;28;20410;-79
2023/04/12 08:20:54;;;;;;;0.97;0.80;;;9.80;99.90;;;;;;5011612;28;20441;-79
2023/04/12 08:23:20;;;;;;;1.00;0.73;;;9.80;99.90;;;;;;5011385;28;20437;-79
2023/04/12 08:25:46;;;;;;;2.30;0.80;;;9.80;99.90;;;;;;5010778;28;20722;-79
2023/04/12 08:28:11;;;;;;;1.20;0.90;;;9.90;99.90;;;;;;4993708;28;20183;-79
2023/04/12 08:30:37;;;;;;;1.03;0.70;;;9.90;99.90;;;;;;5010319;28;20199;-78
2023/04/12 08:33:03;;;;;;;0.80;0.60;;;9.90;99.90;;;;;;5011501;28;20182;-79
2023/04/12 08:35:29;;;;;;;1.27;0.60;;;9.90;99.90;;;;;;5011708;28;20668;-78
2023/04/12 08:37:54;;;;;;;2.00;0.80;;;9.90;99.90;;;;;;5010119;28;20930;-78
2023/04/12 08:40:20;;;;;;;0.70;0.57;;;10.00;99.90;;;;;;5011492;28;20456;-79
2023/04/12 08:42:46;;;;;;;1.00;0.67;;;10.00;99.90;;;;;;5011492;28;20678;-78
2023/04/12 08:45:12;;;;;;;0.87;0.60;;;10.00;99.90;;;;;;5011160;28;20640;-79
2023/04/12 08:47:42;;;;;;;0.90;0.70;;;10.00;99.90;;;;;;5005229;28;20427;-79
2023/04/12 08:50:12;;;;;;;1.20;0.80;;;10.10;99.90;;;;;;5006581;28;20512;-78
2023/04/12 08:52:38;;;;;;;0.80;0.60;;;10.10;99.90;;;;;;5006851;28;20422;-78
2023/04/12 08:55:08;;;;;;;1.13;0.90;;;10.10;99.90;;;;;;4991417;28;20530;-77
2023/04/12 08:57:35;;;;;;;1.00;0.70;;;10.10;99.90;;;;;;5006376;28;20827;-79
2023/04/12 09:00:02;;;;;;;1.10;0.60;;;10.10;99.90;;;;;;4991713;28;20528;-79
2023/04/12 09:02:29;;;;;;;1.33;0.53;;;10.20;99.90;;;;;;4990431;28;20777;-79
2023/04/12 09:04:55;;;;;;;0.80;0.60;;;10.20;99.90;;;;;;4974070;28;20431;-79
2023/04/12 09:07:22;;;;;;;0.93;0.50;;;10.20;99.90;;;;;;4991390;28;20431;-79
2023/04/12 09:09:49;;;;;;;0.90;0.57;;;10.10;99.90;;;;;;5006651;28;20453;-79
2023/04/12 09:12:16;;;;;;;0.83;0.60;;;10.10;99.90;;;;;;4990111;28;20426;-78
2023/04/12 09:14:45;;;;;;;1.90;0.83;;;10.10;99.90;;;;;;4973507;28;20461;-78
2023/04/12 09:17:21;;;;;;;0.70;0.60;;;10.10;99.90;;;;;;4990023;28;20502;-79
2023/04/12 09:19:47;;;;;;;1.13;0.80;;;10.20;99.90;;;;;;4990132;28;20439;-78
2023/04/12 09:22:12;;;;;;;0.80;0.60;;;10.20;99.90;;;;;;5006944;28;20450;-79
2023/04/12 09:24:52;;;;;;;0.97;0.77;;;10.20;99.90;;;;;;5006490;28;20230;-79
2023/04/12 09:27:20;;;;;;;0.83;0.57;;;10.30;99.90;;;;;;4989914;28;20238;-79
2023/04/12 09:29:53;;;;;;;0.87;0.60;;;10.30;99.90;;;;;;5006394;28;21034;-77
2023/04/12 09:32:26;;;;;;;0.90;0.40;;;10.30;99.90;;;;;;4991374;28;20430;-79
2023/04/12 09:35:00;;;;;;;2.17;0.73;;;10.30;99.90;;;;;;4991143;28;20422;-78
2023/04/12 09:37:25;;;;;;;1.60;0.80;;;10.30;99.90;;;;;;4990937;28;20466;-79
2023/04/12 09:40:08;;;;;;;1.00;0.60;;;10.30;99.90;;;;;;4991044;28;20573;-78
2023/04/12 09:42:35;;;;;;;1.27;0.50;;;10.40;99.90;;;;;;5010487;28;20180;-79
2023/04/12 09:45:20;;;;;;;1.10;0.73;;;10.40;99.90;;;;;;5006361;28;20425;-80
2023/04/12 09:47:46;;;;;;;1.10;0.90;;;10.50;99.90;;;;;;5007831;28;20434;-79
2023/04/12 09:50:21;;;;;;;1.00;0.73;;;10.50;99.90;;;;;;4995314;28;20862;-78
2023/04/12 09:52:48;;;;;;;1.00;0.80;;;10.60;99.90;;;;;;5010463;28;20513;-78
2023/04/12 09:55:14;;;;;;;0.77;0.63;;;10.70;99.90;;;;;;5010271;28;20419;-79
2023/04/12 09:57:42;;;;;;;0.87;0.70;;;10.70;99.90;;;;;;4995088;28;20454;-78
2023/04/12 10:00:16;;;;;;;1.00;0.70;;;10.70;99.90;;;;;;4994703;28;20431;-77
2023/04/12 10:02:46;;;;;;;1.37;0.87;;;10.80;99.90;;;;;;4994750;28;20512;-78
2023/04/12 10:05:18;;;;;;;1.93;1.03;;;10.80;99.90;;;;;;4995165;28;20780;-77
2023/04/12 10:07:45;;;;;;;0.50;0.50;;;10.90;99.90;;;;;;4994699;28;20421;-79
2023/04/12 10:10:12;;;;;;;1.20;0.70;;;10.90;99.90;;;;;;4994581;28;20434;-77
2023/04/12 10:12:39;;;;;;;0.80;0.60;;;11.00;99.90;;;;;;4995235;28;20411;-79
2023/04/12 10:15:12;;;;;;;1.27;0.70;;;11.00;99.90;;;;;;5009797;28;20414;-79
2023/04/12 10:17:50;;;;;;;1.07;0.80;;;11.10;99.90;;;;;;4994956;28;20458;-79
2023/04/12 10:20:17;;;;;;;0.70;0.70;;;11.20;99.90;;;;;;5009799;28;20435;-79
2023/04/12 10:22:45;;;;;;;1.07;0.60;;;11.20;99.90;;;;;;4994739;28;20526;-78
2023/04/12 10:25:14;;;;;;;1.00;0.70;;;11.30;99.90;;;;;;5009949;28;20422;-78
2023/04/12 10:27:44;;;;;;;0.70;0.70;;;11.30;99.90;;;;;;4994157;28;20927;-79
2023/04/12 10:30:29;;;;;;;0.80;0.80;;;11.30;99.90;;;;;;5009763;28;20446;-78
2023/04/12 10:33:01;;;;;;;1.10;1.00;;;11.40;99.90;;;;;;4995990;28;20838;-77
2023/04/12 10:35:27;;;;;;;1.17;1.00;;;11.40;99.90;;;;;;4998106;28;20457;-77
2023/04/12 10:38:03;;;;;;;0.87;0.80;;;11.30;99.90;;;;;;4995454;28;20439;-78
2023/04/12 10:40:31;;;;;;;1.10;1.00;;;11.30;99.90;;;;;;4992595;28;20596;-79
2023/04/12 10:43:21;;;;;;;1.20;1.10;;;11.30;99.90;;;;;;5008643;28;20780;-77
2023/04/12 10:45:48;;;;;;;1.37;1.20;;;11.40;99.90;;;;;;5011722;28;20763;-78
2023/04/12 10:48:35;;;;;;;1.77;1.10;;;11.40;99.90;;;;;;5002106;28;20421;-76
2023/04/12 10:51:22;;;;;;;1.67;1.20;;;11.40;99.90;;;;;;4992174;28;21038;-76
2023/04/12 10:53:48;;;;;;;1.40;1.30;;;11.40;99.90;;;;;;4990035;28;20834;-76
2023/04/12 10:56:38;;;;;;;1.20;1.10;;;11.40;99.90;;;;;;4992392;28;20458;-76
2023/04/12 10:59:06;;;;;;;1.93;1.70;;;11.40;99.90;;;;;;4989091;28;20419;-76
2023/04/12 11:01:32;;;;;;;2.00;1.57;;;11.50;99.90;;;;;;4989105;28;20439;-76
2023/04/12 11:04:18;;;;;;;1.60;1.50;;;11.60;99.90;;;;;;4991879;28;20756;-76
2023/04/12 11:06:51;;;;;;;3.00;2.33;;;11.60;99.90;;;;;;5006739;28;20814;-75
2023/04/12 11:09:42;;;;;;;2.40;2.20;;;11.60;99.90;;;;;;4991892;28;20411;-76
2023/04/12 11:12:13;;;;;;;2.23;2.03;;;11.70;99.90;;;;;;4989506;28;20422;-77
2023/04/12 11:14:49;;;;;;;1.30;1.20;;;11.60;99.90;;;;;;4991825;28;21050;-77
2023/04/12 11:17:15;;;;;;;2.63;1.13;;;11.50;99.90;;;;;;4991407;28;20458;-76
2023/04/12 11:19:51;;;;;;;1.67;1.40;;;11.50;99.90;;;;;;4991947;28;20899;-76
2023/04/12 11:22:19;;;;;;;2.33;2.13;;;11.40;99.90;;;;;;4990596;28;20419;-77
2023/04/12 11:24:54;;;;;;;1.73;1.63;;;11.40;99.90;;;;;;4991475;28;20771;-76
2023/04/12 11:27:21;;;;;;;2.10;1.73;;;11.30;99.90;;;;;;4991380;28;20425;-76
2023/04/12 11:29:53;;;;;;;2.23;2.00;;;11.20;99.90;;;;;;4991679;28;20439;-76
2023/04/12 11:32:20;;;;;;;1.93;1.83;;;11.20;99.90;;;;;;4991759;28;20995;-77
2023/04/12 11:34:46;;;;;;;2.20;1.40;;;11.20;99.90;;;;;;4989952;28;20415;-77
2023/04/12 11:37:12;;;;;;;1.60;1.50;;;11.10;99.90;;;;;;4988941;28;20959;-76
2023/04/12 11:39:40;;;;;;;2.27;1.60;;;11.10;99.90;;;;;;4989745;28;20486;-77
2023/04/12 11:42:07;;;;;;;1.90;1.67;;;11.10;99.90;;;;;;5001437;28;20434;-76
2023/04/12 11:44:34;;;;;;;1.60;1.50;;;11.20;99.90;;;;;;5010707;28;20937;-77
2023/04/12 11:47:00;;;;;;;1.90;1.70;;;11.30;99.90;;;;;;5010750;28;20414;-77
2023/04/12 11:49:26;;;;;;;1.17;1.07;;;11.40;99.90;;;;;;5000331;28;20440;-76
2023/04/12 11:52:03;;;;;;;2.07;1.53;;;11.50;99.90;;;;;;5011100;28;20683;-76
2023/04/12 11:54:29;;;;;;;1.50;1.40;;;11.50;99.90;;;;;;5009369;28;20409;-76
2023/04/12 11:56:56;;;;;;;2.37;2.10;;;11.50;99.90;;;;;;5010761;28;20464;-77
2023/04/12 11:59:29;;;;;;;2.40;2.20;;;11.60;99.90;;;;;;5010635;28;20418;-76
2023/04/12 12:01:55;;;;;;;1.90;1.80;;;11.60;99.90;;;;;;5009795;28;20410;-77
2023/04/12 12:04:21;;;;;;;2.30;1.93;;;11.50;99.90;;;;;;5003815;28;20500;-77
2023/04/12 12:06:47;;;;;;;2.07;1.93;;;11.60;99.90;;;;;;5006455;28;20202;-76
2023/04/12 12:09:12;;;;;;;3.70;2.83;;;11.70;99.90;;;;;;4998020;28;20211;-76
2023/04/12 12:11:38;;;;;;;3.57;3.27;;;11.70;99.90;;;;;;5010079;28;20187;-76
2023/04/12 12:14:06;;;;;;;3.10;2.70;;;11.80;99.90;;;;;;5008611;28;20187;-76
2023/04/12 12:16:31;;;;;;;3.97;3.13;;;11.80;99.90;;;;;;5010516;28;20293;-76
2023/04/12 12:18:57;;;;;;;4.70;2.90;;;11.90;99.90;;;;;;5010040;28;20845;-76
2023/04/12 12:21:25;;;;;;;3.50;2.67;;;12.00;99.90;;;;;;5003892;28;20673;-75
2023/04/12 12:23:50;;;;;;;3.60;2.40;;;11.90;99.90;;;;;;4990247;28;20270;-76
2023/04/12 12:26:24;;;;;;;4.40;2.20;;;12.00;99.90;;;;;;4990672;28;20877;-76
2023/04/12 12:28:50;;;;;;;3.20;1.90;;;12.00;99.90;;;;;;4988950;28;20210;-76
2023/04/12 12:31:20;;;;;;;4.80;2.60;;;12.10;99.90;;;;;;4990197;28;20438;-77
2023/04/12 12:33:46;;;;;;;3.40;2.30;;;12.10;99.90;;;;;;4994688;28;20502;-77
2023/04/12 12:36:15;;;;;;;2.07;1.60;;;12.00;99.90;;;;;;5009219;28;20465;-76
2023/04/12 12:38:43;;;;;;;3.40;2.37;;;12.10;99.90;;;;;;5009618;28;20462;-76
2023/04/12 12:41:19;;;;;;;5.83;2.00;;;12.20;99.90;;;;;;5009876;28;20457;-76
2023/04/12 12:43:49;;;;;;;3.30;1.70;;;12.20;99.90;;;;;;5008634;28;21128;-76
2023/04/12 12:46:16;;;;;;;3.37;1.70;;;12.20;99.90;;;;;;5008891;28;20435;-76
2023/04/12 12:48:44;;;;;;;2.60;2.20;;;12.30;99.90;;;;;;5008318;28;20414;-76
2023/04/12 12:51:11;;;;;;;4.33;2.17;;;12.40;99.90;;;;;;5007817;28;20439;-76
2023/04/12 12:53:40;;;;;;;2.93;2.10;;;12.50;99.90;;;;;;4999172;28;20508;-76